createdAt,value
2022-10-07T00:01:47.758Z,100.00
2022-10-07T00:04:14.271Z,100.00
2022-10-07T00:06:40.678Z,100.00
2022-10-07T00:09:07.102Z,100.00
2022-10-07T00:11:33.536Z,100.00
2022-10-07T00:14:00.914Z,100.00
2022-10-07T00:16:30.258Z,100.00
2022-10-07T00:18:58.147Z,100.00
2022-10-07T00:21:26.134Z,100.00
2022-10-07T00:23:52.781Z,100.00
2022-10-07T00:26:20.641Z,100.00
2022-10-07T00:28:47.447Z,100.00
2022-10-07T00:31:15.466Z,100.00
2022-10-07T00:33:43.404Z,100.00
2022-10-07T00:36:16.031Z,100.00
2022-10-07T00:38:42.528Z,100.00
2022-10-07T00:41:09.822Z,100.00
2022-10-07T00:43:36.273Z,100.00
2022-10-07T00:46:14.982Z,100.00
2022-10-07T00:48:43.048Z,100.00
2022-10-07T00:51:10.173Z,100.00
2022-10-07T00:53:38.965Z,100.00
2022-10-07T00:56:05.926Z,100.00
2022-10-07T00:58:34.550Z,100.00
2022-10-07T01:01:01.431Z,100.00
2022-10-07T01:03:28.350Z,100.00
2022-10-07T01:05:54.937Z,100.00
2022-10-07T01:08:22.779Z,100.00
2022-10-07T01:10:57.125Z,100.00
2022-10-07T01:13:38.637Z,100.00
2022-10-07T01:16:28.054Z,100.00
2022-10-07T01:19:09.900Z,100.00
2022-10-07T01:21:48.543Z,100.00
2022-10-07T01:24:33.730Z,100.00
2022-10-07T01:27:11.706Z,100.00
2022-10-07T01:29:41.198Z,100.00
2022-10-07T01:32:27.811Z,100.00
2022-10-07T01:34:55.868Z,100.00
2022-10-07T01:37:24.297Z,100.00
2022-10-07T01:39:53.412Z,100.00
2022-10-07T01:42:20.827Z,100.00
2022-10-07T01:44:49.185Z,100.00
2022-10-07T01:47:15.890Z,100.00
2022-10-07T01:49:42.336Z,100.00
2022-10-07T01:52:27.500Z,100.00
2022-10-07T01:55:11.399Z,100.00
2022-10-07T01:57:49.022Z,100.00
2022-10-07T02:00:16.484Z,100.00
2022-10-07T02:02:48.834Z,100.00
2022-10-07T02:05:24.058Z,100.00
2022-10-07T02:08:02.550Z,100.00
2022-10-07T02:10:44.273Z,100.00
2022-10-07T02:13:16.938Z,100.00
2022-10-07T02:15:47.730Z,100.00
2022-10-07T02:18:17.011Z,100.00
2022-10-07T02:20:46.024Z,100.00
2022-10-07T02:23:14.050Z,100.00
2022-10-07T02:25:44.316Z,100.00
2022-10-07T02:28:11.989Z,100.00
2022-10-07T02:30:40.163Z,100.00
2022-10-07T02:33:07.789Z,100.00
2022-10-07T02:35:41.924Z,100.00
2022-10-07T02:38:11.468Z,100.00
2022-10-07T02:40:43.811Z,100.00
2022-10-07T02:43:29.170Z,100.00
2022-10-07T02:46:01.691Z,100.00
2022-10-07T02:48:31.168Z,100.00
2022-10-07T02:51:00.514Z,100.00
2022-10-07T02:53:29.126Z,100.00
2022-10-07T02:55:56.404Z,100.00
2022-10-07T02:58:25.811Z,100.00
2022-10-07T03:00:55.529Z,100.00
2022-10-07T03:03:22.241Z,100.00
2022-10-07T03:05:49.317Z,100.00
2022-10-07T03:08:16.109Z,100.00
2022-10-07T03:10:42.854Z,100.00
2022-10-07T03:13:09.703Z,100.00
2022-10-07T03:15:42.120Z,100.00
2022-10-07T03:18:26.442Z,100.00
2022-10-07T03:20:55.268Z,100.00
2022-10-07T03:23:25.173Z,100.00
2022-10-07T03:25:52.140Z,100.00
2022-10-07T03:28:20.698Z,100.00
2022-10-07T03:30:47.782Z,100.00
2022-10-07T03:33:14.717Z,100.00
2022-10-07T03:35:41.480Z,100.00
2022-10-07T03:38:08.593Z,100.00
2022-10-07T03:40:35.574Z,100.00
2022-10-07T03:43:02.570Z,100.00
2022-10-07T03:45:30.452Z,100.00
2022-10-07T03:47:57.352Z,100.00
2022-10-07T03:50:24.218Z,100.00
2022-10-07T03:52:50.721Z,100.00
2022-10-07T03:55:17.259Z,100.00
2022-10-07T03:57:59.137Z,100.00
2022-10-07T04:00:26.695Z,100.00
2022-10-07T04:02:53.274Z,100.00
2022-10-07T04:05:20.801Z,100.00
2022-10-07T04:07:48.377Z,100.00
2022-10-07T04:10:16.674Z,100.00
2022-10-07T04:12:43.514Z,100.00
2022-10-07T04:15:13.746Z,100.00
2022-10-07T04:17:40.738Z,100.00
2022-10-07T04:20:07.802Z,100.00
2022-10-07T04:22:34.223Z,100.00
2022-10-07T04:25:19.087Z,100.00
2022-10-07T04:27:58.154Z,100.00
2022-10-07T04:30:26.048Z,100.00
2022-10-07T04:32:52.723Z,100.00
2022-10-07T04:35:22.528Z,100.00
2022-10-07T04:37:49.123Z,100.00
2022-10-07T04:40:15.836Z,100.00
2022-10-07T04:43:00.600Z,100.00
2022-10-07T04:45:26.999Z,99.60
2022-10-07T04:47:53.402Z,100.00
2022-10-07T04:50:19.766Z,100.00
2022-10-07T04:52:46.534Z,100.00
2022-10-07T04:55:14.302Z,100.00
2022-10-07T04:57:41.077Z,100.00
2022-10-07T05:00:08.350Z,100.00
2022-10-07T05:02:35.093Z,100.00
2022-10-07T05:05:01.645Z,100.00
2022-10-07T05:07:28.358Z,100.00
2022-10-07T05:09:54.738Z,100.00
2022-10-07T05:12:21.096Z,100.00
2022-10-07T05:14:47.524Z,100.00
2022-10-07T05:17:13.919Z,100.00
2022-10-07T05:19:40.348Z,100.00
2022-10-07T05:22:07.052Z,100.00
2022-10-07T05:24:33.447Z,100.00
2022-10-07T05:27:00.016Z,100.00
2022-10-07T05:29:26.438Z,100.00
2022-10-07T05:31:52.941Z,100.00
2022-10-07T05:34:20.292Z,100.00
2022-10-07T05:36:47.343Z,100.00
2022-10-07T05:39:14.614Z,100.00
2022-10-07T05:41:45.727Z,100.00
2022-10-07T05:44:12.314Z,100.00
2022-10-07T05:46:40.214Z,100.00
2022-10-07T05:49:06.630Z,100.00
2022-10-07T05:51:33.006Z,100.00
2022-10-07T05:53:59.594Z,100.00
2022-10-07T05:56:26.006Z,100.00
2022-10-07T05:58:52.831Z,100.00
2022-10-07T06:01:20.494Z,100.00
2022-10-07T06:03:50.921Z,100.00
2022-10-07T06:06:17.624Z,100.00
2022-10-07T06:08:44.009Z,100.00
2022-10-07T06:11:30.823Z,100.00
2022-10-07T06:13:57.221Z,100.00
2022-10-07T06:16:24.320Z,100.00
2022-10-07T06:18:52.510Z,100.00
2022-10-07T06:21:19.587Z,100.00
2022-10-07T06:23:51.321Z,100.00
2022-10-07T06:26:18.794Z,100.00
2022-10-07T06:28:45.381Z,100.00
2022-10-07T06:31:25.877Z,100.00
2022-10-07T06:33:52.696Z,100.00
2022-10-07T06:36:19.271Z,100.00
2022-10-07T06:38:46.516Z,100.00
2022-10-07T06:41:12.901Z,100.00
2022-10-07T06:43:39.312Z,100.00
2022-10-07T06:46:06.463Z,100.00
2022-10-07T06:48:33.812Z,100.00
2022-10-07T06:51:03.314Z,100.00
2022-10-07T06:53:29.896Z,100.00
2022-10-07T06:55:58.018Z,100.00
2022-10-07T06:58:26.014Z,100.00
2022-10-07T07:00:55.986Z,100.00
2022-10-07T07:03:22.685Z,100.00
2022-10-07T07:05:54.495Z,100.00
2022-10-07T07:08:24.164Z,100.00
2022-10-07T07:10:50.788Z,100.00
2022-10-07T07:13:18.122Z,100.00
2022-10-07T07:15:53.540Z,100.00
2022-10-07T07:18:19.937Z,100.00
2022-10-07T07:20:46.312Z,100.00
2022-10-07T07:23:12.712Z,100.00
2022-10-07T07:25:39.857Z,100.00
2022-10-07T07:28:07.193Z,100.00
2022-10-07T07:30:34.428Z,100.00
2022-10-07T07:33:01.142Z,100.00
2022-10-07T07:35:28.382Z,100.00
2022-10-07T07:37:55.248Z,100.00
2022-10-07T07:40:21.618Z,100.00
2022-10-07T07:42:48.722Z,100.00
2022-10-07T07:45:15.716Z,100.00
2022-10-07T07:47:42.169Z,100.00
2022-10-07T07:50:08.787Z,100.00
2022-10-07T07:52:35.634Z,100.00
2022-10-07T07:55:02.642Z,100.00
2022-10-07T07:57:29.802Z,100.00
2022-10-07T07:59:56.441Z,100.00
2022-10-07T08:02:23.497Z,100.00
2022-10-07T08:04:50.230Z,100.00
2022-10-07T08:07:16.913Z,100.00
2022-10-07T08:09:43.916Z,100.00
2022-10-07T08:12:10.305Z,100.00
2022-10-07T08:14:37.872Z,100.00
2022-10-07T08:17:04.337Z,100.00
2022-10-07T08:19:30.722Z,100.00
2022-10-07T08:21:58.041Z,100.00
2022-10-07T08:24:25.823Z,100.00
2022-10-07T08:26:53.650Z,100.00
2022-10-07T08:29:21.065Z,100.00
2022-10-07T08:31:47.896Z,100.00
2022-10-07T08:34:14.452Z,100.00
2022-10-07T08:36:43.983Z,100.00
2022-10-07T08:39:10.836Z,100.00
2022-10-07T08:41:42.306Z,100.00
2022-10-07T08:44:17.899Z,100.00
2022-10-07T08:46:50.935Z,100.00
2022-10-07T08:49:19.994Z,100.00
2022-10-07T08:51:48.442Z,100.00
2022-10-07T08:54:16.232Z,100.00
2022-10-07T08:56:43.021Z,100.00
2022-10-07T08:59:16.313Z,100.00
2022-10-07T09:01:42.690Z,100.00
2022-10-07T09:04:10.742Z,100.00
2022-10-07T09:06:46.888Z,99.40
2022-10-07T09:09:16.524Z,98.35
2022-10-07T09:11:45.309Z,100.00
2022-10-07T09:14:14.695Z,100.00
2022-10-07T09:16:43.321Z,100.00
2022-10-07T09:19:17.114Z,100.00
2022-10-07T09:21:47.864Z,100.00
2022-10-07T09:24:24.918Z,100.00
2022-10-07T09:26:55.224Z,100.00
2022-10-07T09:29:23.383Z,100.00
2022-10-07T09:31:50.051Z,100.00
2022-10-07T09:34:24.188Z,100.00
2022-10-07T09:37:09.437Z,100.00
2022-10-07T09:39:35.862Z,100.00
2022-10-07T09:42:03.896Z,100.00
2022-10-07T09:44:30.493Z,100.00
2022-10-07T09:47:11.933Z,100.00
2022-10-07T09:49:41.162Z,100.00
2022-10-07T09:52:14.361Z,100.00
2022-10-07T09:54:41.685Z,99.29
2022-10-07T09:57:25.343Z,98.25
2022-10-07T09:59:51.983Z,99.10
2022-10-07T10:02:22.323Z,93.83
2022-10-07T10:04:51.127Z,91.01
2022-10-07T10:07:22.356Z,92.81
2022-10-07T10:09:52.742Z,90.17
2022-10-07T10:12:20.429Z,91.54
2022-10-07T10:14:48.644Z,87.83
2022-10-07T10:17:21.068Z,83.54
2022-10-07T10:19:47.452Z,80.90
2022-10-07T10:22:34.154Z,79.43
2022-10-07T10:25:19.118Z,81.83
2022-10-07T10:27:57.227Z,81.72
2022-10-07T10:30:24.637Z,80.45
2022-10-07T10:33:04.987Z,79.84
2022-10-07T10:35:34.602Z,74.61
2022-10-07T10:38:19.847Z,77.71
2022-10-07T10:40:58.498Z,76.51
2022-10-07T10:43:24.912Z,75.80
2022-10-07T10:46:02.474Z,75.48
2022-10-07T10:48:42.477Z,77.30
2022-10-07T10:51:17.741Z,77.66
2022-10-07T10:53:47.130Z,76.85
2022-10-07T10:56:20.967Z,76.51
2022-10-07T10:59:17.913Z,76.39
2022-10-07T11:01:46.369Z,77.44
2022-10-07T11:04:31.474Z,72.68
2022-10-07T11:07:12.696Z,72.60
2022-10-07T11:09:45.678Z,72.06
2022-10-07T11:12:33.366Z,75.18
2022-10-07T11:15:02.391Z,73.88
2022-10-07T11:17:34.122Z,75.08
2022-10-07T11:20:12.058Z,75.78
2022-10-07T11:22:41.475Z,76.41
2022-10-07T11:25:21.171Z,72.92
2022-10-07T11:27:50.887Z,75.96
2022-10-07T11:30:17.338Z,74.48
2022-10-07T11:32:43.953Z,74.70
2022-10-07T11:35:29.520Z,75.64
2022-10-07T11:38:03.290Z,75.07
2022-10-07T11:40:31.111Z,75.76
2022-10-07T11:43:05.172Z,76.63
2022-10-07T11:45:37.390Z,75.77
2022-10-07T11:48:07.980Z,75.54
2022-10-07T11:50:39.739Z,74.43
2022-10-07T11:53:08.482Z,75.00
2022-10-07T11:55:44.150Z,76.06
2022-10-07T11:58:22.739Z,76.00
2022-10-07T12:00:49.381Z,74.24
2022-10-07T12:03:18.810Z,73.26
2022-10-07T12:05:52.219Z,75.28
2022-10-07T12:08:24.514Z,75.82
2022-10-07T12:11:09.498Z,76.41
2022-10-07T12:13:37.008Z,76.35
2022-10-07T12:16:23.386Z,76.38
2022-10-07T12:19:08.209Z,77.17
2022-10-07T12:21:53.167Z,77.73
2022-10-07T12:24:19.539Z,77.78
2022-10-07T12:26:46.848Z,77.62
2022-10-07T12:29:34.012Z,77.54
2022-10-07T12:32:00.845Z,74.71
2022-10-07T12:34:29.138Z,74.90
2022-10-07T12:37:15.488Z,74.54
2022-10-07T12:39:42.488Z,73.89
2022-10-07T12:42:13.068Z,74.72
2022-10-07T12:44:43.620Z,72.30
2022-10-07T12:47:11.934Z,73.44
2022-10-07T12:49:41.716Z,73.76
2022-10-07T12:52:12.197Z,72.82
2022-10-07T12:54:49.830Z,72.67
2022-10-07T12:57:19.415Z,74.39
2022-10-07T13:00:05.388Z,75.14
2022-10-07T13:02:50.524Z,72.39
2022-10-07T13:05:35.007Z,73.23
2022-10-07T13:08:16.697Z,72.87
2022-10-07T13:10:43.044Z,71.81
2022-10-07T13:13:13.123Z,71.22
2022-10-07T13:15:53.056Z,71.91
2022-10-07T13:18:22.166Z,70.20
2022-10-07T13:20:57.411Z,70.30
2022-10-07T13:23:27.402Z,70.66
2022-10-07T13:25:55.361Z,70.60
2022-10-07T13:28:23.896Z,70.65
2022-10-07T13:30:51.076Z,71.13
2022-10-07T13:33:26.248Z,71.69
2022-10-07T13:36:05.244Z,70.41
2022-10-07T13:38:31.675Z,70.86
2022-10-07T13:41:03.398Z,70.34
2022-10-07T13:43:31.874Z,70.65
2022-10-07T13:45:58.829Z,71.41
2022-10-07T13:48:26.853Z,72.27
2022-10-07T13:50:55.646Z,72.96
2022-10-07T13:53:25.847Z,72.95
2022-10-07T13:56:04.259Z,73.59
2022-10-07T13:58:32.821Z,72.71
2022-10-07T14:01:02.966Z,72.49
2022-10-07T14:03:29.394Z,72.78
2022-10-07T14:05:56.391Z,72.74
2022-10-07T14:08:24.625Z,74.00
2022-10-07T14:10:51.030Z,73.72
2022-10-07T14:13:17.895Z,74.33
2022-10-07T14:15:49.540Z,74.01
2022-10-07T14:18:17.212Z,75.73
2022-10-07T14:20:51.246Z,75.44
2022-10-07T14:23:20.504Z,75.82
2022-10-07T14:25:47.033Z,76.35
2022-10-07T14:28:17.798Z,75.78
2022-10-07T14:31:04.442Z,76.26
2022-10-07T14:34:08.404Z,75.75
2022-10-07T14:36:36.134Z,76.68
2022-10-07T14:39:21.703Z,76.41
2022-10-07T14:41:48.406Z,76.91
2022-10-07T14:44:15.233Z,76.91
2022-10-07T14:46:42.750Z,77.16
2022-10-07T14:49:09.410Z,76.81
2022-10-07T14:51:35.826Z,77.30
2022-10-07T14:54:05.185Z,77.35
2022-10-07T14:56:32.547Z,77.70
2022-10-07T14:58:59.323Z,77.72
2022-10-07T15:01:26.689Z,78.30
2022-10-07T15:03:53.160Z,78.79
2022-10-07T15:06:20.538Z,79.27
2022-10-07T15:08:47.897Z,79.53
2022-10-07T15:11:18.755Z,80.06
2022-10-07T15:13:48.501Z,80.38
2022-10-07T15:16:16.319Z,80.78
2022-10-07T15:18:45.975Z,80.97
2022-10-07T15:21:14.694Z,81.13
2022-10-07T15:23:41.402Z,81.26
2022-10-07T15:26:07.962Z,81.39
2022-10-07T15:28:34.432Z,81.54
2022-10-07T15:31:05.590Z,81.66
2022-10-07T15:33:32.142Z,81.67
2022-10-07T15:35:58.740Z,81.99
2022-10-07T15:38:26.937Z,81.69
2022-10-07T15:40:55.089Z,82.04
2022-10-07T15:43:21.809Z,82.24
2022-10-07T15:45:50.189Z,82.11
2022-10-07T15:48:17.525Z,82.09
2022-10-07T15:50:49.748Z,82.01
2022-10-07T15:53:16.916Z,82.41
2022-10-07T15:55:54.395Z,82.51
2022-10-07T15:58:22.256Z,82.27
2022-10-07T16:01:02.310Z,82.68
2022-10-07T16:03:32.451Z,82.31
2022-10-07T16:05:59.678Z,82.49
2022-10-07T16:08:26.551Z,82.78
2022-10-07T16:10:52.933Z,82.88
2022-10-07T16:13:19.370Z,82.93
2022-10-07T16:16:06.510Z,82.83
2022-10-07T16:18:37.338Z,83.03
2022-10-07T16:21:07.801Z,83.36
2022-10-07T16:23:35.007Z,83.38
2022-10-07T16:26:08.703Z,83.44
2022-10-07T16:28:56.805Z,83.54
2022-10-07T16:31:23.308Z,83.88
2022-10-07T16:33:53.610Z,83.58
2022-10-07T16:36:21.222Z,84.03
2022-10-07T16:38:47.938Z,84.01
2022-10-07T16:41:16.350Z,83.96
2022-10-07T16:43:44.439Z,84.33
2022-10-07T16:46:12.979Z,85.03
2022-10-07T16:48:40.540Z,84.87
2022-10-07T16:51:11.283Z,84.71
2022-10-07T16:53:38.960Z,84.64
2022-10-07T16:56:05.462Z,85.42
2022-10-07T16:58:33.241Z,85.36
2022-10-07T17:01:03.658Z,85.43
2022-10-07T17:03:32.731Z,85.45
2022-10-07T17:05:59.329Z,85.47
2022-10-07T17:08:25.854Z,85.65
2022-10-07T17:10:52.694Z,85.47
2022-10-07T17:13:19.112Z,85.65
2022-10-07T17:15:50.430Z,85.83
2022-10-07T17:18:18.841Z,86.06
2022-10-07T17:20:51.638Z,86.52
2022-10-07T17:23:18.473Z,87.04
2022-10-07T17:25:47.991Z,87.47
2022-10-07T17:28:14.417Z,87.35
2022-10-07T17:30:41.022Z,88.24
2022-10-07T17:33:07.766Z,88.10
2022-10-07T17:35:34.287Z,87.89
2022-10-07T17:38:01.061Z,88.12
2022-10-07T17:40:30.698Z,87.90
2022-10-07T17:42:59.492Z,88.05
2022-10-07T17:45:25.866Z,88.36
2022-10-07T17:47:54.453Z,88.63
2022-10-07T17:50:20.849Z,88.67
2022-10-07T17:52:47.209Z,88.86
2022-10-07T17:55:13.621Z,89.26
2022-10-07T17:57:40.022Z,88.94
2022-10-07T18:00:07.322Z,89.10
2022-10-07T18:02:34.013Z,88.82
2022-10-07T18:05:00.860Z,90.08
2022-10-07T18:07:27.324Z,90.30
2022-10-07T18:09:53.693Z,90.11
2022-10-07T18:12:38.597Z,89.97
2022-10-07T18:15:20.459Z,89.70
2022-10-07T18:17:51.064Z,89.57
2022-10-07T18:20:21.922Z,89.29
2022-10-07T18:22:57.687Z,89.13
2022-10-07T18:25:24.652Z,89.43
2022-10-07T18:27:51.252Z,89.22
2022-10-07T18:30:17.657Z,88.94
2022-10-07T18:32:44.053Z,89.11
2022-10-07T18:35:10.508Z,89.10
2022-10-07T18:37:37.487Z,89.00
2022-10-07T18:40:04.034Z,89.36
2022-10-07T18:42:32.710Z,89.26
2022-10-07T18:44:59.091Z,89.32
2022-10-07T18:47:25.492Z,89.06
2022-10-07T18:49:51.905Z,89.04
2022-10-07T18:52:18.367Z,88.93
2022-10-07T18:54:44.781Z,88.80
2022-10-07T18:57:11.211Z,88.85
2022-10-07T18:59:37.691Z,89.27
2022-10-07T19:02:04.281Z,89.58
2022-10-07T19:04:30.983Z,89.62
2022-10-07T19:06:57.377Z,90.31
2022-10-07T19:09:23.833Z,90.20
2022-10-07T19:11:50.282Z,90.50
2022-10-07T19:14:16.689Z,90.67
2022-10-07T19:16:44.432Z,90.78
2022-10-07T19:19:18.115Z,91.23
2022-10-07T19:21:48.527Z,91.12
2022-10-07T19:24:15.956Z,90.60
2022-10-07T19:26:44.601Z,91.16
2022-10-07T19:29:12.171Z,91.80
2022-10-07T19:31:42.585Z,91.25
2022-10-07T19:34:13.754Z,91.29
2022-10-07T19:36:42.227Z,91.11
2022-10-07T19:39:09.700Z,91.27
2022-10-07T19:41:36.753Z,91.36
2022-10-07T19:44:03.979Z,91.17
2022-10-07T19:46:31.341Z,91.15
2022-10-07T19:48:59.287Z,90.95
2022-10-07T19:51:27.399Z,91.31
2022-10-07T19:53:54.079Z,91.34
2022-10-07T19:56:22.449Z,91.30
2022-10-07T19:58:56.325Z,91.33
2022-10-07T20:01:24.908Z,91.96
2022-10-07T20:03:59.061Z,91.85
2022-10-07T20:06:26.230Z,92.40
2022-10-07T20:08:53.128Z,92.17
2022-10-07T20:11:19.614Z,92.04
2022-10-07T20:13:46.100Z,92.05
2022-10-07T20:16:12.500Z,92.01
2022-10-07T20:18:41.148Z,92.36
2022-10-07T20:21:11.430Z,92.35
2022-10-07T20:23:40.336Z,92.45
2022-10-07T20:26:17.918Z,92.33
2022-10-07T20:28:48.133Z,92.96
2022-10-07T20:31:15.307Z,92.89
2022-10-07T20:33:42.054Z,93.13
2022-10-07T20:36:09.530Z,93.15
2022-10-07T20:38:54.811Z,93.19
2022-10-07T20:41:40.769Z,92.83
2022-10-07T20:44:07.547Z,94.04
2022-10-07T20:46:34.542Z,94.74
2022-10-07T20:49:00.948Z,95.03
2022-10-07T20:51:27.615Z,95.38
2022-10-07T20:53:54.058Z,95.73
2022-10-07T20:56:21.186Z,96.25
2022-10-07T20:58:47.603Z,96.02
2022-10-07T21:01:14.113Z,95.82
2022-10-07T21:03:40.487Z,95.30
2022-10-07T21:06:07.035Z,95.61
2022-10-07T21:08:33.487Z,95.67
2022-10-07T21:11:03.286Z,95.94
2022-10-07T21:13:30.441Z,95.55
2022-10-07T21:15:57.217Z,96.14
2022-10-07T21:18:26.504Z,95.92
2022-10-07T21:20:56.716Z,95.76
2022-10-07T21:23:23.850Z,96.33
2022-10-07T21:25:51.737Z,96.85
2022-10-07T21:28:18.540Z,96.95
2022-10-07T21:30:54.079Z,96.87
2022-10-07T21:33:20.517Z,96.46
2022-10-07T21:35:47.430Z,96.34
2022-10-07T21:38:13.801Z,96.58
2022-10-07T21:40:40.213Z,96.96
2022-10-07T21:43:06.597Z,96.81
2022-10-07T21:45:32.937Z,96.74
2022-10-07T21:47:59.297Z,96.44
2022-10-07T21:50:25.690Z,96.10
2022-10-07T21:52:52.045Z,95.91
2022-10-07T21:55:18.407Z,96.07
2022-10-07T21:57:44.778Z,95.88
2022-10-07T22:00:14.245Z,96.13
2022-10-07T22:02:40.742Z,96.13
2022-10-07T22:05:07.492Z,96.06
2022-10-07T22:07:52.652Z,96.04
2022-10-07T22:10:19.026Z,95.96
2022-10-07T22:12:45.651Z,95.74
2022-10-07T22:15:12.274Z,96.71
2022-10-07T22:17:38.621Z,95.97
2022-10-07T22:20:05.156Z,95.56
2022-10-07T22:22:32.102Z,95.86
2022-10-07T22:24:58.530Z,95.96
2022-10-07T22:27:26.016Z,96.63
2022-10-07T22:29:52.449Z,96.07
2022-10-07T22:32:18.887Z,96.25
2022-10-07T22:35:03.945Z,97.02
2022-10-07T22:37:30.337Z,96.57
2022-10-07T22:39:56.754Z,96.37
2022-10-07T22:42:23.118Z,96.20
2022-10-07T22:44:49.495Z,95.98
2022-10-07T22:47:16.380Z,95.57
2022-10-07T22:49:42.828Z,96.15
2022-10-07T22:52:09.195Z,96.08
2022-10-07T22:54:35.549Z,96.16
2022-10-07T22:57:02.274Z,96.22
2022-10-07T22:59:28.628Z,96.31
2022-10-07T23:01:55.041Z,96.39
2022-10-07T23:04:21.590Z,96.02
2022-10-07T23:06:48.408Z,96.07
2022-10-07T23:09:14.784Z,95.95
2022-10-07T23:11:41.191Z,96.21
2022-10-07T23:14:07.650Z,96.35
2022-10-07T23:16:34.245Z,96.00
2022-10-07T23:19:00.724Z,96.68
2022-10-07T23:21:28.158Z,96.25
2022-10-07T23:24:01.708Z,95.84
2022-10-07T23:26:31.574Z,95.49
2022-10-07T23:28:58.958Z,95.89
2022-10-07T23:31:27.436Z,95.45
2022-10-07T23:33:54.814Z,95.41
2022-10-07T23:36:21.583Z,95.67
2022-10-07T23:38:48.595Z,95.73
2022-10-07T23:41:22.253Z,95.67
2022-10-07T23:43:49.709Z,95.56
2022-10-07T23:46:16.470Z,95.50
2022-10-07T23:48:43.402Z,95.93
2022-10-07T23:51:14.208Z,95.83
2022-10-07T23:53:40.778Z,95.89
2022-10-07T23:56:07.558Z,96.16
2022-10-07T23:58:34.306Z,96.42
